TBPT2: Truscott Brine Lake

Data processed at Fri Apr 17 22:21:25 2015 Central Daylight Time


All information presented herein is the property of the government of the United States of America and may be revised or deleted at any time without prior notice.
Dissemination of this information without the expressed written consent of the Public Affairs Office, Tulsa District U.S. Army Corps of Engineers is strictly prohibited.
These data are gathered electronically and, as presented, have not undergone any form of quality control. These data are not guaranteed to be valid or correct.
Go to home page.
Go to station list.
Go to station map.

Downstream station:

Previous Day
Next Day
Current Day

Display graphics.
Display DCP transmissions.


    
    SHEF ID:       TBPT2     Truscott Brine Lake
    STATION TYPE:  BRINE STORAGE
    
                   PRECIP PRECIP(2) ELEVATION   STORAGE  AIR-TEMP  WIND-DIRWIND-SPEED REL-HUMID SOLAR-RAD   VOLTAGE  BAT-LOAD
                   INCHES    INCHES      FEET      ACFT     DEG-F   DEGREES       MPH   PERCENT      W/M2     VOLTS     VOLTS
                     GOES      GOES      GOES      GOES      GOES      GOES      GOES      GOES      GOES      GOES      GOES
       (Cen)
    04/17 01:00      0.00      0.00   1460.45     23542     67.82    105.40     11.50     81.57      0.00     12.90     12.60
    04/17 02:00      0.00      0.00   1460.45     23542     65.84    131.10     11.62     86.88      0.00     12.88     12.54
    04/17 03:00      0.00      0.00   1460.45     23542     65.62    118.10      9.96     90.91      1.00     12.86     12.54
    04/17 04:00      0.00      0.00   1460.45     23542     65.17    134.50      9.73     91.34      1.00     12.84     12.54
    04/17 05:00      0.00      0.00   1460.45     23542     64.63    170.20      5.13     89.14      1.00     12.82     12.48
    04/17 06:00      0.00      0.00   1460.44     23528     64.08    153.00      7.46     89.14      1.00     12.80     12.48
    04/17 07:00      0.00      0.00   1460.45     23542     62.98    139.50     11.90     92.93      1.00     12.78     12.42
    04/17 08:00      0.00      0.00   1460.45     23542     63.09    118.90     11.44     94.21      5.00     12.77     12.42
    04/17 09:00      0.00      0.00   1460.45     23542     64.63     27.00      1.48     91.40     24.00     13.05     12.42
    04/17 10:00      0.00      0.00   1460.45     23542     63.86     75.90      3.27     93.05     65.00     12.82     12.71
    04/17 11:00      0.00      0.01   1460.45     23542     59.90     34.30     10.61     96.23     26.00     12.78     12.48
    04/17 12:00      0.00      0.00   1460.45     23542     59.02     44.30     11.92     93.17     26.00     12.76     12.42
    04/17 13:00      0.33      0.37   1460.50     23610     59.90     39.30     10.65     96.29     16.00     14.02     13.30
    04/17 14:00      0.00      0.00   1460.50     23610     61.11     31.10     13.62     95.48    431.00     13.32     12.71
    04/17 15:00      0.11      0.13   1460.51     23624     63.75     69.90     10.45     96.10     69.00     13.50     13.30
    04/17 16:00      0.00      0.00   1460.51     23624     62.98     62.50      8.39     96.53    148.00     13.16     13.48
    04/17 17:00      0.00      0.00   1460.51     23624     65.17     88.30      8.24     88.84     41.00     13.82     12.89
    04/17 18:00      0.00      0.00   1460.51     23624     65.95    212.00      3.53     84.14    483.00     13.93     13.48
    04/17 19:00      0.00      0.00   1460.51     23624     66.83    148.00      5.19     81.51    282.00     13.43     13.53
    04/17 20:00      0.00      0.00   1460.51     23624     65.28    137.40      9.39     80.29     81.00     13.02     13.07
    04/17 21:00      0.00      0.00   1460.51     23624     63.41    128.00     11.55     89.07     10.00     12.98     12.65
    04/17 22:00      0.00      0.00   1460.51     23624     62.55    140.80      8.90     89.33      1.00     12.94     12.65
    04/17 23:00      ----      ----      ----      ----      ----      ----      ----      ----      ----      ----      ----
    04/18 00:00      ----      ----      ----      ----      ----      ----      ----      ----      ----      ----      ----